Time;durP1;ratioP1;P1;durP2;ratioP2;P2;SDS_P1;SDS_P2;PMS_P1;PMS_P2;Temp;Humidity;BMP_temperature;BMP_pressure;BME280_temperature;BME280_humidity;BME280_pressure;Samples;Min_cycle;Max_cycle;Signal;HPM_P1;HPM_P2
2021/01/05 00:01:55;;;;;;;6.77;2.40;;;26.30;83.90;;;;;;4981211;28;20194;-78
2021/01/05 00:04:23;;;;;;;5.13;2.03;;;26.60;81.30;;;;;;4975219;28;20218;-76
2021/01/05 00:06:50;;;;;;;5.00;2.00;;;26.90;80.10;;;;;;4985319;28;20186;-77
2021/01/05 00:09:17;;;;;;;6.47;2.53;;;26.90;79.10;;;;;;4992522;28;20212;-76
2021/01/05 00:12:17;;;;;;;6.80;1.80;;;27.00;80.40;;;;;;4992401;28;20178;-76
2021/01/05 00:14:47;;;;;;;5.03;2.10;;;26.90;80.00;;;;;;4984331;28;20209;-75
2021/01/05 00:17:18;;;;;;;5.10;2.13;;;26.60;80.30;;;;;;4996136;28;20204;-76
2021/01/05 00:19:47;;;;;;;5.73;2.40;;;26.30;81.40;;;;;;4996367;28;20170;-75
2021/01/05 00:22:15;;;;;;;6.77;2.33;;;26.50;82.20;;;;;;4996555;28;20170;-76
2021/01/05 00:24:43;;;;;;;4.60;2.27;;;26.90;80.20;;;;;;4995662;28;20178;-76
2021/01/05 00:27:11;;;;;;;6.20;2.17;;;27.00;79.40;;;;;;4995943;28;20178;-76
2021/01/05 00:29:39;;;;;;;3.90;1.90;;;27.50;78.90;;;;;;4996038;28;20624;-76
2021/01/05 00:32:07;;;;;;;2.87;1.90;;;27.80;76.00;;;;;;4996277;28;20183;-75
2021/01/05 00:34:34;;;;;;;2.90;1.30;;;27.50;75.50;;;;;;4996066;28;20682;-76
2021/01/05 00:37:03;;;;;;;2.73;1.40;;;27.20;76.20;;;;;;4995768;28;20644;-75
2021/01/05 00:39:30;;;;;;;6.10;1.60;;;27.20;76.10;;;;;;4994598;28;20274;-76
2021/01/05 00:41:58;;;;;;;4.23;1.70;;;27.10;75.50;;;;;;4996066;28;20217;-75
2021/01/05 00:44:25;;;;;;;4.80;1.93;;;27.20;74.80;;;;;;4995828;28;20177;-78
2021/01/05 00:46:52;;;;;;;5.47;2.30;;;27.20;76.30;;;;;;4990198;28;20174;-78
2021/01/05 00:49:20;;;;;;;5.57;2.67;;;27.10;77.90;;;;;;4995635;28;20672;-76
2021/01/05 00:51:47;;;;;;;3.27;1.97;;;27.40;77.10;;;;;;4995744;28;20201;-76
2021/01/05 00:54:14;;;;;;;3.60;2.13;;;27.70;76.50;;;;;;4995456;28;20174;-76
2021/01/05 00:56:42;;;;;;;6.37;2.10;;;27.70;75.90;;;;;;4995853;28;20170;-77
2021/01/05 00:59:09;;;;;;;3.50;1.90;;;27.60;74.50;;;;;;4995315;28;20171;-77
2021/01/05 01:01:37;;;;;;;4.50;1.90;;;27.40;74.70;;;;;;4995211;28;20264;-76
2021/01/05 01:04:04;;;;;;;5.70;2.17;;;27.70;75.30;;;;;;4995215;28;20226;-77
2021/01/05 01:06:31;;;;;;;4.80;2.20;;;27.80;74.80;;;;;;4995323;28;20189;-77
2021/01/05 01:08:59;;;;;;;4.77;1.97;;;28.10;74.60;;;;;;4995196;28;20220;-78
2021/01/05 01:11:28;;;;;;;3.43;1.90;;;28.00;73.90;;;;;;4995299;28;20198;-79
2021/01/05 01:13:56;;;;;;;3.97;2.20;;;28.00;72.80;;;;;;4995360;28;20186;-78
2021/01/05 01:16:23;;;;;;;8.30;2.17;;;28.40;72.60;;;;;;4995307;28;20166;-78
2021/01/05 01:18:50;;;;;;;3.83;2.07;;;28.30;73.90;;;;;;4995300;28;20185;-75
2021/01/05 01:21:18;;;;;;;3.40;1.90;;;28.60;73.00;;;;;;4995056;28;20571;-77
2021/01/05 01:23:46;;;;;;;7.27;2.40;;;28.80;71.80;;;;;;4994501;28;20265;-77
2021/01/05 01:26:13;;;;;;;6.23;2.80;;;28.70;70.90;;;;;;4994845;28;20184;-77
2021/01/05 01:28:43;;;;;;;3.47;2.10;;;28.90;71.40;;;;;;4994842;28;20206;-75
2021/01/05 01:31:11;;;;;;;10.43;2.27;;;28.90;69.90;;;;;;4994718;28;20193;-77
2021/01/05 01:33:39;;;;;;;3.37;2.13;;;28.70;70.40;;;;;;4995405;28;20181;-77
2021/01/05 01:36:06;;;;;;;3.40;1.80;;;28.90;69.40;;;;;;4998850;28;20615;-76
2021/01/05 01:38:34;;;;;;;7.23;1.90;;;29.10;69.70;;;;;;4999527;28;20174;-76
2021/01/05 01:41:03;;;;;;;2.90;1.70;;;29.20;69.40;;;;;;4979773;28;20328;-74
2021/01/05 01:43:30;;;;;;;3.27;1.73;;;29.10;67.60;;;;;;4998041;28;20185;-79
2021/01/05 01:45:57;;;;;;;5.27;1.97;;;29.30;68.10;;;;;;4985491;28;20194;-77
2021/01/05 01:48:25;;;;;;;3.67;1.93;;;29.40;67.10;;;;;;4995653;28;20217;-79
2021/01/05 01:50:54;;;;;;;3.83;1.80;;;29.50;66.50;;;;;;4994913;28;20182;-77
2021/01/05 01:53:33;;;;;;;11.67;2.73;;;29.40;65.30;;;;;;4975526;28;20191;-77
2021/01/05 01:56:24;;;;;;;10.87;3.27;;;29.60;73.60;;;;;;4982295;28;20632;-76
2021/01/05 01:58:58;;;;;;;5.10;3.27;;;29.70;74.20;;;;;;4992574;28;20178;-77
2021/01/05 02:01:57;;;;;;;8.00;3.13;;;29.30;75.20;;;;;;4975989;28;20174;-78
2021/01/05 02:04:30;;;;;;;10.27;3.70;;;29.40;75.80;;;;;;4961891;28;20236;-77
2021/01/05 02:07:35;;;;;;;7.30;3.20;;;29.20;76.30;;;;;;4983560;28;20223;-77
2021/01/05 02:10:36;;;;;;;9.43;3.87;;;29.20;76.10;;;;;;4956371;28;20319;-77
2021/01/05 02:13:16;;;;;;;8.13;3.77;;;29.10;76.10;;;;;;4987722;28;20186;-77
2021/01/05 02:16:04;;;;;;;11.37;4.50;;;28.80;79.00;;;;;;4987639;28;20182;-76
2021/01/05 02:18:34;;;;;;;8.60;4.70;;;28.40;80.70;;;;;;4988387;28;20193;-76
2021/01/05 02:21:10;;;;;;;21.63;4.63;;;28.30;81.80;;;;;;4990808;28;20190;-77
2021/01/05 02:24:03;;;;;;;10.63;4.07;;;28.40;81.10;;;;;;4989237;28;20560;-77
2021/01/05 02:27:08;;;;;;;7.80;3.80;;;28.30;81.20;;;;;;4986776;28;20182;-76
2021/01/05 02:29:43;;;;;;;11.77;4.43;;;27.90;81.70;;;;;;4975262;28;20252;-75
2021/01/05 02:32:58;;;;;;;7.07;3.50;;;28.20;82.00;;;;;;4988518;28;20591;-78
2021/01/05 02:36:06;;;;;;;10.37;4.30;;;28.60;80.10;;;;;;4960837;28;20203;-78
2021/01/05 02:39:08;;;;;;;7.33;3.20;;;28.30;80.20;;;;;;4990800;28;20245;-77
2021/01/05 02:42:00;;;;;;;8.57;3.77;;;28.40;79.60;;;;;;4970793;28;20229;-78
2021/01/05 02:45:05;;;;;;;13.83;4.97;;;28.40;80.50;;;;;;4986345;28;20261;-75
2021/01/05 02:47:32;;;;;;;15.03;4.60;;;28.10;81.30;;;;;;4990809;28;20185;-75
2021/01/05 02:50:26;;;;;;;8.73;4.20;;;27.90;82.00;;;;;;4989064;28;20220;-76
2021/01/05 02:53:21;;;;;;;8.07;4.30;;;27.60;82.50;;;;;;4986654;28;20186;-75
2021/01/05 02:56:22;;;;;;;7.20;4.17;;;27.40;83.40;;;;;;4989299;28;20612;-77
2021/01/05 02:59:31;;;;;;;11.13;4.30;;;27.60;83.00;;;;;;4987863;28;20240;-79
2021/01/05 03:02:16;;;;;;;8.27;3.53;;;28.10;82.10;;;;;;4988220;28;20190;-76
2021/01/05 03:04:43;;;;;;;12.07;4.80;;;28.20;81.30;;;;;;4984414;28;20324;-76
2021/01/05 03:07:18;;;;;;;9.83;4.00;;;28.00;81.50;;;;;;4981735;28;20189;-76
2021/01/05 03:10:14;;;;;;;18.73;5.97;;;28.10;81.70;;;;;;4988912;28;20522;-77
2021/01/05 03:13:29;;;;;;;11.90;5.17;;;28.60;81.10;;;;;;4981653;28;20280;-78
2021/01/05 03:16:15;;;;;;;7.53;4.23;;;28.60;80.70;;;;;;4982950;28;20651;-76
2021/01/05 03:18:55;;;;;;;10.97;4.20;;;29.00;79.70;;;;;;4989979;28;20185;-78
2021/01/05 03:21:30;;;;;;;15.00;5.00;;;29.30;78.20;;;;;;4985926;28;20539;-76
2021/01/05 03:24:00;;;;;;;11.87;4.67;;;29.50;78.10;;;;;;4989637;28;20189;-78
2021/01/05 03:26:36;;;;;;;8.57;3.23;;;29.50;77.70;;;;;;4990202;28;20664;-77
2021/01/05 03:29:04;;;;;;;6.17;3.33;;;29.80;77.10;;;;;;4991274;28;20672;-78
2021/01/05 03:31:50;;;;;;;11.43;3.80;;;29.70;75.90;;;;;;4985257;28;20190;-76
2021/01/05 03:34:18;;;;;;;17.53;4.43;;;29.90;75.70;;;;;;4984195;28;20236;-78
2021/01/05 03:36:45;;;;;;;8.87;3.90;;;29.90;76.00;;;;;;4987603;28;20671;-78
2021/01/05 03:39:14;;;;;;;4.43;2.65;;;30.20;75.10;;;;;;4985682;28;20188;-77
2021/01/05 03:41:44;;;;;;;9.07;3.90;;;30.40;73.70;;;;;;4986056;28;20182;-78
2021/01/05 03:44:12;;;;;;;5.17;3.33;;;30.10;74.10;;;;;;4993491;28;20645;-77
2021/01/05 03:46:39;;;;;;;7.65;3.55;;;30.20;73.30;;;;;;4992364;28;20604;-78
2021/01/05 03:49:07;;;;;;;6.88;2.50;;;30.30;73.60;;;;;;4985169;28;20617;-78
2021/01/05 03:51:35;;;;;;;6.30;3.15;;;30.30;72.10;;;;;;4993668;28;20534;-78
2021/01/05 03:54:02;;;;;;;8.02;4.03;;;30.40;72.50;;;;;;4996839;28;20197;-76
2021/01/05 03:56:29;;;;;;;7.10;4.00;;;30.50;72.70;;;;;;4986841;28;20269;-77
2021/01/05 03:58:57;;;;;;;6.15;3.33;;;29.80;73.80;;;;;;4988202;28;20183;-77
2021/01/05 04:01:24;;;;;;;6.35;3.10;;;29.60;75.00;;;;;;4982085;28;20762;-77
2021/01/05 04:03:51;;;;;;;8.30;3.40;;;29.60;75.70;;;;;;4983551;28;20289;-77
2021/01/05 04:06:18;;;;;;;8.05;3.97;;;29.60;76.60;;;;;;4992692;28;20281;-77
2021/01/05 04:08:46;;;;;;;7.80;3.08;;;30.20;75.10;;;;;;4994665;28;20237;-78
2021/01/05 04:11:18;;;;;;;10.00;3.67;;;30.50;73.60;;;;;;4995907;28;20655;-77
2021/01/05 04:13:45;;;;;;;7.90;3.22;;;30.60;72.00;;;;;;4977731;28;20543;-78
2021/01/05 04:16:15;;;;;;;9.60;3.05;;;31.00;70.90;;;;;;4991284;28;20182;-77
2021/01/05 04:18:44;;;;;;;9.02;3.47;;;30.90;70.80;;;;;;4988357;28;20642;-77
2021/01/05 04:21:14;;;;;;;4.88;2.38;;;30.60;70.80;;;;;;4981572;28;20179;-79
2021/01/05 04:23:41;;;;;;;7.50;2.70;;;30.80;71.40;;;;;;4995375;28;20244;-77
2021/01/05 04:26:09;;;;;;;5.03;2.30;;;31.10;70.50;;;;;;4985268;28;20186;-79
2021/01/05 04:28:37;;;;;;;4.95;2.40;;;31.10;69.40;;;;;;4988269;28;20281;-77
2021/01/05 04:31:04;;;;;;;7.00;2.28;;;30.40;71.80;;;;;;4996056;28;20301;-78
2021/01/05 04:33:31;;;;;;;7.05;2.55;;;30.00;72.80;;;;;;4999016;28;20513;-77
2021/01/05 04:35:59;;;;;;;5.00;2.33;;;29.30;74.90;;;;;;5015727;28;20647;-77
2021/01/05 04:38:26;;;;;;;4.60;2.50;;;28.90;76.40;;;;;;5011273;28;20177;-76
2021/01/05 04:40:54;;;;;;;7.27;4.47;;;29.00;76.30;;;;;;4986894;28;20209;-77
2021/01/05 04:43:36;;;;;;;9.82;4.88;;;29.30;75.70;;;;;;4978937;28;20186;-75
2021/01/05 04:46:15;;;;;;;7.13;2.97;;;29.20;75.30;;;;;;4993205;28;20174;-75
2021/01/05 04:48:57;;;;;;;3.07;2.17;;;28.70;76.50;;;;;;4991630;28;20205;-78
2021/01/05 04:51:52;;;;;;;5.23;2.20;;;28.20;76.90;;;;;;5004250;28;20276;-76
2021/01/05 04:54:41;;;;;;;5.37;2.03;;;27.90;78.00;;;;;;4985218;28;20180;-76
2021/01/05 04:57:24;;;;;;;4.37;2.27;;;28.20;77.00;;;;;;4976062;28;20187;-76
2021/01/05 05:00:00;;;;;;;7.87;3.57;;;28.60;78.30;;;;;;4991494;28;20596;-77
2021/01/05 05:02:31;;;;;;;4.83;2.10;;;28.40;80.50;;;;;;4995487;28;20180;-77
2021/01/05 05:05:12;;;;;;;6.07;2.63;;;28.10;76.90;;;;;;4989945;28;20222;-80
2021/01/05 05:08:11;;;;;;;5.20;2.90;;;27.60;79.00;;;;;;4977165;28;20526;-78
2021/01/05 05:10:52;;;;;;;7.73;2.53;;;27.40;81.10;;;;;;4944515;28;20285;-78
2021/01/05 05:13:32;;;;;;;4.93;2.40;;;28.40;78.20;;;;;;4975951;28;20665;-78
2021/01/05 05:16:30;;;;;;;3.37;2.30;;;29.20;76.90;;;;;;4980374;28;20183;-76
2021/01/05 05:19:14;;;;;;;10.27;7.15;;;30.20;75.10;;;;;;5011710;28;20200;-80
2021/01/05 05:22:36;;;;;;;8.25;4.15;;;30.60;72.00;;;;;;5002621;28;20201;-79
2021/01/05 05:25:31;;;;;;;6.32;2.58;;;30.80;71.70;;;;;;4958904;28;20223;-77
2021/01/05 05:28:13;;;;;;;8.68;2.20;;;30.80;70.70;;;;;;4994901;28;20182;-77
2021/01/05 05:30:44;;;;;;;5.60;2.60;;;31.20;69.80;;;;;;4994358;28;20260;-77
2021/01/05 05:33:37;;;;;;;7.82;2.67;;;31.70;70.00;;;;;;4992795;28;20170;-78
2021/01/05 05:36:10;;;;;;;6.25;2.10;;;31.10;70.50;;;;;;4977231;28;20701;-77
2021/01/05 05:39:02;;;;;;;4.95;1.98;;;30.90;70.50;;;;;;4979818;28;20302;-77
2021/01/05 05:41:58;;;;;;;5.85;2.08;;;31.00;70.50;;;;;;4987605;28;20530;-78
2021/01/05 05:44:34;;;;;;;4.65;2.03;;;30.40;70.80;;;;;;4978712;28;20553;-79
2021/01/05 05:47:35;;;;;;;5.97;2.13;;;30.40;70.90;;;;;;4978375;28;20193;-80
2021/01/05 05:50:25;;;;;;;6.15;2.20;;;30.50;71.50;;;;;;4984391;28;20554;-78
2021/01/05 05:53:11;;;;;;;5.82;2.13;;;31.00;70.80;;;;;;4991929;28;20178;-77
2021/01/05 05:55:47;;;;;;;5.20;2.33;;;31.40;70.00;;;;;;4979498;28;20650;-77
2021/01/05 05:58:19;;;;;;;4.43;3.45;;;32.00;67.90;;;;;;4983814;28;20179;-76
2021/01/05 06:00:50;;;;;;;6.75;3.22;;;32.20;66.80;;;;;;4987276;28;20181;-76
2021/01/05 06:03:20;;;;;;;6.40;2.17;;;32.00;67.70;;;;;;4990787;28;20193;-78
2021/01/05 06:05:47;;;;;;;6.53;2.60;;;32.70;66.70;;;;;;4982948;28;20202;-76
2021/01/05 06:08:17;;;;;;;7.00;2.33;;;33.30;64.20;;;;;;4988567;28;20231;-77
2021/01/05 06:10:45;;;;;;;6.03;2.40;;;33.50;63.60;;;;;;4979081;28;20182;-76
2021/01/05 06:13:13;;;;;;;5.47;2.20;;;33.80;62.50;;;;;;4992567;28;20185;-76
2021/01/05 06:15:40;;;;;;;5.55;2.17;;;33.60;61.00;;;;;;4991270;28;20191;-74
2021/01/05 06:18:11;;;;;;;6.05;2.08;;;33.00;62.50;;;;;;4982235;28;20668;-77
2021/01/05 06:20:39;;;;;;;6.30;2.22;;;31.80;65.60;;;;;;4976976;28;20607;-76
2021/01/05 06:23:06;;;;;;;4.55;1.80;;;31.70;67.00;;;;;;4986759;28;20218;-76
2021/01/05 06:25:34;;;;;;;2.78;2.00;;;31.80;64.60;;;;;;4989090;28;20198;-75
2021/01/05 06:28:02;;;;;;;5.03;2.30;;;31.90;65.60;;;;;;4985544;28;20317;-76
2021/01/05 06:30:29;;;;;;;5.63;2.08;;;31.30;65.70;;;;;;4986125;28;20229;-76
2021/01/05 06:32:56;;;;;;;5.57;2.35;;;30.20;69.20;;;;;;4983941;28;20189;-77
2021/01/05 06:35:24;;;;;;;6.00;2.33;;;30.20;71.20;;;;;;4983532;28;20260;-77
2021/01/05 06:37:53;;;;;;;7.25;2.38;;;31.00;69.80;;;;;;4977566;28;20645;-76
2021/01/05 06:40:25;;;;;;;7.55;2.30;;;31.40;68.30;;;;;;4970569;28;20260;-75
2021/01/05 06:42:53;;;;;;;2.53;1.80;;;31.40;67.70;;;;;;4990039;28;20181;-77
2021/01/05 06:45:38;;;;;;;4.28;2.30;;;30.80;69.60;;;;;;4989417;28;20174;-77
2021/01/05 06:48:06;;;;;;;5.45;2.70;;;30.10;72.40;;;;;;4992316;28;20182;-77
2021/01/05 06:50:33;;;;;;;4.37;2.63;;;29.50;74.90;;;;;;4993025;28;20193;-75
2021/01/05 06:53:00;;;;;;;8.98;2.97;;;28.90;77.70;;;;;;4979758;28;20268;-77
2021/01/05 06:55:28;;;;;;;7.23;3.93;;;28.40;80.30;;;;;;4993576;28;20552;-76
2021/01/05 06:57:55;;;;;;;10.13;3.97;;;27.90;82.70;;;;;;4992638;28;20185;-76
2021/01/05 07:00:25;;;;;;;9.33;4.27;;;27.60;84.30;;;;;;4992330;28;20487;-76
2021/01/05 07:02:53;;;;;;;8.43;4.00;;;27.30;85.80;;;;;;4989241;28;20199;-75
2021/01/05 07:05:22;;;;;;;15.20;5.23;;;27.00;87.50;;;;;;4974396;28;20222;-76
2021/01/05 07:07:49;;;;;;;16.43;5.77;;;26.70;88.70;;;;;;4984633;28;20179;-75
2021/01/05 07:10:18;;;;;;;18.03;9.47;;;26.20;90.20;;;;;;4973653;28;20565;-75
2021/01/05 07:12:47;;;;;;;14.13;5.33;;;26.10;90.80;;;;;;4977706;28;20274;-75
2021/01/05 07:15:17;;;;;;;12.50;4.63;;;26.30;90.70;;;;;;4991913;28;20209;-75
2021/01/05 07:17:44;;;;;;;14.27;4.23;;;26.50;91.80;;;;;;4991611;28;20181;-76
2021/01/05 07:20:12;;;;;;;7.07;4.13;;;26.80;91.90;;;;;;4983530;28;20596;-77
2021/01/05 07:22:40;;;;;;;16.87;10.30;;;27.60;90.70;;;;;;4993768;28;20181;-77
2021/01/05 07:25:11;;;;;;;15.03;7.67;;;28.50;90.60;;;;;;4990988;28;20197;-77
2021/01/05 07:27:38;;;;;;;13.63;4.63;;;28.60;90.40;;;;;;5001462;28;20189;-77
2021/01/05 07:30:07;;;;;;;10.83;4.30;;;28.60;89.50;;;;;;4993261;28;20218;-80
2021/01/05 07:32:34;;;;;;;8.43;3.13;;;28.10;89.90;;;;;;4995371;28;20628;-78
2021/01/05 07:35:02;;;;;;;7.73;3.30;;;27.60;88.20;;;;;;4990571;28;20204;-77
2021/01/05 07:37:32;;;;;;;4.53;2.87;;;27.30;87.70;;;;;;4979245;28;20633;-77
2021/01/05 07:39:59;;;;;;;8.30;3.10;;;27.10;89.80;;;;;;4995507;28;20284;-78
2021/01/05 07:42:31;;;;;;;8.17;3.57;;;26.90;89.90;;;;;;4997160;28;20185;-77
2021/01/05 07:45:05;;;;;;;7.10;3.57;;;26.80;90.40;;;;;;4985265;28;20190;-76
2021/01/05 07:47:38;;;;;;;9.33;2.97;;;26.80;90.40;;;;;;4977488;28;20219;-77
2021/01/05 07:50:08;;;;;;;10.43;3.40;;;26.70;88.40;;;;;;4980603;28;20261;-77
2021/01/05 07:52:39;;;;;;;6.60;3.20;;;26.40;90.00;;;;;;4994098;28;20191;-77
2021/01/05 07:55:13;;;;;;;7.50;2.97;;;26.40;90.10;;;;;;4977260;28;20179;-77
2021/01/05 07:57:41;;;;;;;9.30;2.70;;;26.30;88.10;;;;;;4977585;28;20221;-77
2021/01/05 08:00:12;;;;;;;5.57;2.57;;;26.20;87.70;;;;;;4977421;28;20187;-77
2021/01/05 08:02:39;;;;;;;9.97;3.03;;;26.20;86.70;;;;;;4985137;28;20194;-76
2021/01/05 08:05:07;;;;;;;7.60;2.33;;;26.00;87.90;;;;;;4977058;28;20713;-77
2021/01/05 08:07:35;;;;;;;4.37;2.20;;;25.90;86.20;;;;;;4979553;28;20182;-78
2021/01/05 08:10:05;;;;;;;6.03;3.17;;;25.90;87.00;;;;;;4996622;28;20296;-78
2021/01/05 08:12:32;;;;;;;10.77;4.30;;;25.90;87.60;;;;;;4983040;28;20591;-78
2021/01/05 08:14:59;;;;;;;7.30;3.07;;;25.70;88.60;;;;;;4995504;28;20240;-75
2021/01/05 08:17:27;;;;;;;7.93;3.27;;;25.50;89.80;;;;;;4980664;28;20269;-77
2021/01/05 08:19:54;;;;;;;4.13;2.77;;;25.40;90.20;;;;;;4989557;28;20186;-78
2021/01/05 08:22:22;;;;;;;10.87;3.23;;;25.40;90.60;;;;;;4990034;28;20728;-77
2021/01/05 08:24:49;;;;;;;9.67;3.23;;;25.30;90.70;;;;;;4987659;28;20605;-73
2021/01/05 08:27:16;;;;;;;8.10;3.03;;;25.20;90.80;;;;;;4990704;28;20186;-74
2021/01/05 08:29:44;;;;;;;4.83;3.03;;;25.20;90.70;;;;;;4990375;28;20225;-75
2021/01/05 08:32:11;;;;;;;6.60;3.47;;;25.20;91.40;;;;;;4988650;28;20190;-77
2021/01/05 08:34:38;;;;;;;7.47;3.47;;;25.20;91.70;;;;;;4988169;28;20186;-74
2021/01/05 08:37:06;;;;;;;7.13;3.57;;;25.20;91.60;;;;;;4987202;28;20672;-74
2021/01/05 08:39:33;;;;;;;7.83;3.53;;;25.30;91.80;;;;;;4988561;28;20182;-74
2021/01/05 08:42:00;;;;;;;10.30;4.30;;;25.40;91.60;;;;;;4989582;28;20185;-75
2021/01/05 08:44:28;;;;;;;10.90;5.53;;;25.30;91.80;;;;;;4989257;28;20240;-76
2021/01/05 08:47:00;;;;;;;6.80;3.63;;;25.20;92.60;;;;;;4993035;28;20197;-73
2021/01/05 08:49:28;;;;;;;11.33;4.60;;;25.10;92.90;;;;;;4983923;28;20592;-74
2021/01/05 08:51:56;;;;;;;8.93;4.17;;;25.00;93.20;;;;;;4992596;28;20190;-74
2021/01/05 08:54:24;;;;;;;9.10;4.37;;;24.90;93.50;;;;;;4985417;28;20187;-75
2021/01/05 08:56:56;;;;;;;11.80;5.07;;;24.70;93.80;;;;;;4988073;28;20535;-75
2021/01/05 08:59:24;;;;;;;15.07;6.20;;;24.60;94.20;;;;;;4987172;28;20309;-75
2021/01/05 09:01:51;;;;;;;17.27;8.33;;;24.50;94.40;;;;;;4988615;28;20186;-75
2021/01/05 09:04:19;;;;;;;18.07;9.40;;;24.40;94.60;;;;;;4991929;28;20293;-73
2021/01/05 09:06:50;;;;;;;13.60;5.60;;;24.40;94.90;;;;;;4985250;28;20212;-75
2021/01/05 09:09:18;;;;;;;13.97;6.43;;;24.30;95.20;;;;;;4984052;28;20673;-74
2021/01/05 09:11:52;;;;;;;11.77;6.10;;;24.20;95.40;;;;;;4991561;28;20182;-76
2021/01/05 09:14:20;;;;;;;16.73;7.87;;;24.20;95.90;;;;;;4985544;28;20307;-74
2021/01/05 09:16:48;;;;;;;10.67;6.00;;;24.10;95.90;;;;;;4992190;28;20269;-75
2021/01/05 09:19:16;;;;;;;15.17;6.27;;;24.00;96.20;;;;;;4988031;28;20626;-74
2021/01/05 09:21:47;;;;;;;13.23;5.43;;;24.00;96.30;;;;;;4990258;28;20190;-74
2021/01/05 09:24:15;;;;;;;10.33;5.23;;;24.00;96.40;;;;;;4983642;28;20182;-75
2021/01/05 09:26:42;;;;;;;12.83;6.43;;;23.90;96.30;;;;;;4989234;28;20206;-75
2021/01/05 09:29:11;;;;;;;14.20;6.23;;;23.90;96.60;;;;;;4988289;28;20576;-75
2021/01/05 09:31:47;;;;;;;22.40;11.93;;;23.80;96.40;;;;;;4986515;28;20284;-74
2021/01/05 09:34:16;;;;;;;15.00;8.57;;;23.90;96.60;;;;;;4990500;28;20248;-75
2021/01/05 09:36:44;;;;;;;19.10;6.50;;;23.80;96.50;;;;;;4985705;28;20189;-75
2021/01/05 09:39:15;;;;;;;22.77;12.77;;;23.80;96.70;;;;;;4990844;28;20213;-75
2021/01/05 09:41:45;;;;;;;11.77;5.90;;;23.80;96.70;;;;;;4985062;28;20182;-75
2021/01/05 09:44:13;;;;;;;9.83;5.37;;;23.90;96.60;;;;;;4990447;28;20265;-74
2021/01/05 09:46:41;;;;;;;15.53;5.70;;;23.90;96.40;;;;;;4983804;28;20198;-76
2021/01/05 09:49:14;;;;;;;9.30;5.00;;;23.90;96.30;;;;;;4991132;28;20353;-75
2021/01/05 09:51:42;;;;;;;12.90;5.30;;;23.80;96.60;;;;;;4986364;28;20217;-75
2021/01/05 09:54:10;;;;;;;9.43;5.50;;;23.90;96.70;;;;;;4989432;28;20179;-76
2021/01/05 09:56:37;;;;;;;12.10;5.90;;;23.90;96.80;;;;;;4988196;28;20186;-76
2021/01/05 09:59:05;;;;;;;8.27;4.30;;;23.90;96.60;;;;;;4987122;28;20178;-75
2021/01/05 10:01:34;;;;;;;9.63;4.97;;;23.90;96.80;;;;;;4990044;28;20182;-74
2021/01/05 10:04:01;;;;;;;13.57;5.97;;;24.00;96.90;;;;;;4990896;28;20240;-75
2021/01/05 10:06:34;;;;;;;7.53;5.13;;;23.90;96.70;;;;;;4986837;28;20551;-76
2021/01/05 10:09:12;;;;;;;23.93;6.77;;;23.90;96.70;;;;;;4988040;28;20213;-76
2021/01/05 10:11:42;;;;;;;11.50;5.03;;;23.80;96.70;;;;;;4986296;28;20216;-75
2021/01/05 10:14:12;;;;;;;11.13;5.30;;;23.80;97.00;;;;;;4988190;28;20547;-77
2021/01/05 10:16:40;;;;;;;9.57;4.80;;;23.80;97.00;;;;;;4987914;28;20178;-77
2021/01/05 10:19:07;;;;;;;9.43;5.00;;;23.70;97.30;;;;;;4989243;28;20272;-75
2021/01/05 10:21:40;;;;;;;15.03;5.00;;;23.70;97.20;;;;;;4983794;28;20186;-76
2021/01/05 10:24:09;;;;;;;10.90;4.87;;;23.70;97.20;;;;;;4990518;28;20194;-76
2021/01/05 10:26:36;;;;;;;12.10;5.90;;;23.70;97.10;;;;;;4989352;28;20256;-75
2021/01/05 10:29:05;;;;;;;13.23;5.97;;;23.60;97.40;;;;;;4988614;28;20202;-75
2021/01/05 10:31:41;;;;;;;10.30;5.90;;;23.60;97.50;;;;;;4989944;28;20186;-75
2021/01/05 10:34:09;;;;;;;13.67;6.00;;;23.50;97.60;;;;;;4985409;28;20245;-75
2021/01/05 10:36:37;;;;;;;11.17;4.83;;;23.50;97.80;;;;;;4987518;28;20194;-75
2021/01/05 10:39:09;;;;;;;11.97;5.60;;;23.50;97.80;;;;;;4983447;28;20183;-76
2021/01/05 10:41:42;;;;;;;9.90;6.03;;;23.40;97.80;;;;;;4982037;28;20231;-76
2021/01/05 10:44:12;;;;;;;12.90;5.20;;;23.40;98.00;;;;;;4983380;28;20294;-74
2021/01/05 10:46:39;;;;;;;12.53;4.77;;;23.40;98.00;;;;;;4984187;28;20185;-78
2021/01/05 10:49:07;;;;;;;10.97;5.20;;;23.40;98.00;;;;;;4979801;28;20209;-75
2021/01/05 10:51:34;;;;;;;12.43;4.53;;;23.40;98.00;;;;;;4990780;28;20181;-75
2021/01/05 10:54:02;;;;;;;9.57;4.93;;;23.40;98.10;;;;;;4987612;28;20556;-75
2021/01/05 10:56:30;;;;;;;12.47;5.90;;;23.50;98.30;;;;;;4987477;28;20186;-74
2021/01/05 10:58:57;;;;;;;10.50;5.37;;;23.40;98.60;;;;;;4985085;28;20243;-75
2021/01/05 11:01:24;;;;;;;15.47;5.57;;;23.40;98.80;;;;;;4984149;28;20618;-76
2021/01/05 11:03:52;;;;;;;10.00;4.87;;;23.30;98.90;;;;;;4988460;28;20226;-76
2021/01/05 11:06:19;;;;;;;11.50;5.23;;;23.30;98.90;;;;;;4987313;28;20196;-75
2021/01/05 11:08:46;;;;;;;13.63;5.50;;;23.30;99.00;;;;;;4988142;28;20238;-75
2021/01/05 11:11:19;;;;;;;11.43;5.27;;;23.20;99.00;;;;;;4985868;28;20265;-75
2021/01/05 11:13:47;;;;;;;13.00;5.53;;;23.30;99.10;;;;;;4989522;28;20175;-75
2021/01/05 11:16:15;;;;;;;14.27;5.40;;;23.30;98.80;;;;;;4983977;28;20178;-75
2021/01/05 11:18:45;;;;;;;11.77;4.80;;;23.20;99.00;;;;;;4989531;28;20217;-75
2021/01/05 11:21:14;;;;;;;8.87;4.43;;;23.20;99.20;;;;;;4983772;28;20181;-74
2021/01/05 11:23:42;;;;;;;15.10;4.77;;;23.20;99.40;;;;;;4982916;28;20551;-74
2021/01/05 11:26:14;;;;;;;15.77;5.30;;;23.10;99.60;;;;;;4990803;28;20186;-75
2021/01/05 11:28:41;;;;;;;11.70;4.93;;;23.10;99.80;;;;;;4984822;28;20214;-74
2021/01/05 11:31:08;;;;;;;18.97;4.90;;;23.10;99.80;;;;;;4983308;28;20566;-73
2021/01/05 11:33:35;;;;;;;11.37;4.70;;;23.00;99.70;;;;;;4981195;28;20190;-74
2021/01/05 11:36:03;;;;;;;14.47;5.57;;;23.00;99.80;;;;;;4986236;28;20565;-75
2021/01/05 11:38:30;;;;;;;17.90;5.47;;;23.00;99.90;;;;;;4990137;28;20185;-75
2021/01/05 11:40:57;;;;;;;13.67;4.87;;;23.00;99.60;;;;;;4982506;28;20442;-75
2021/01/05 11:43:25;;;;;;;15.77;5.63;;;22.90;99.70;;;;;;4988951;28;20191;-77
2021/01/05 11:45:52;;;;;;;15.20;5.20;;;22.90;99.90;;;;;;4987095;28;20178;-75
2021/01/05 11:48:19;;;;;;;18.53;6.50;;;22.80;99.90;;;;;;4990714;28;20178;-74
2021/01/05 11:50:47;;;;;;;35.13;6.90;;;22.80;99.90;;;;;;4987554;28;20213;-75
2021/01/05 11:53:16;;;;;;;30.17;7.10;;;22.80;99.90;;;;;;4990402;28;20204;-75
2021/01/05 11:55:43;;;;;;;23.52;6.68;;;22.80;99.90;;;;;;4985513;28;20473;-74
2021/01/05 11:58:11;;;;;;;14.37;5.47;;;22.70;99.90;;;;;;4986834;28;20213;-76
2021/01/05 12:00:40;;;;;;;16.23;5.40;;;22.80;99.90;;;;;;4985844;28;20602;-76
2021/01/05 12:03:07;;;;;;;24.57;6.00;;;22.70;99.90;;;;;;4981036;28;20765;-73
2021/01/05 12:05:35;;;;;;;15.10;5.40;;;22.70;99.90;;;;;;4975105;28;20230;-76
2021/01/05 12:08:02;;;;;;;16.87;5.23;;;22.70;99.90;;;;;;4981823;28;20545;-74
2021/01/05 12:10:29;;;;;;;16.63;5.57;;;22.70;99.90;;;;;;4988688;28;20229;-76
2021/01/05 12:12:57;;;;;;;8.97;4.80;;;22.70;99.90;;;;;;4988221;28;20280;-74
2021/01/05 12:15:24;;;;;;;20.30;5.17;;;22.70;99.90;;;;;;4992503;28;20184;-74
2021/01/05 12:17:51;;;;;;;12.30;4.20;;;22.70;99.80;;;;;;4991639;28;20548;-74
2021/01/05 12:20:19;;;;;;;14.13;3.93;;;22.50;99.10;;;;;;4987442;28;20194;-74
2021/01/05 12:22:46;;;;;;;12.03;3.43;;;22.50;98.40;;;;;;4989930;28;20177;-76
2021/01/05 12:25:13;;;;;;;17.53;3.27;;;22.30;97.30;;;;;;4989715;28;20272;-76
2021/01/05 12:27:41;;;;;;;18.13;3.67;;;22.20;97.60;;;;;;4987783;28;20205;-75
2021/01/05 12:30:09;;;;;;;19.13;3.87;;;22.10;97.10;;;;;;4990918;28;20610;-74
2021/01/05 12:32:36;;;;;;;13.20;3.33;;;22.00;96.80;;;;;;4986925;28;20180;-73
2021/01/05 12:35:04;;;;;;;19.40;4.00;;;21.90;96.90;;;;;;4990194;28;20182;-73
2021/01/05 12:37:31;;;;;;;16.83;3.70;;;21.80;96.70;;;;;;4986750;28;20242;-73
2021/01/05 12:39:58;;;;;;;19.60;3.50;;;21.70;96.80;;;;;;4988152;28;20225;-76
2021/01/05 12:42:27;;;;;;;21.73;3.33;;;21.70;96.80;;;;;;4990833;28;20268;-76
2021/01/05 12:44:55;;;;;;;15.83;3.53;;;21.70;96.20;;;;;;4995961;28;20176;-73
2021/01/05 12:47:24;;;;;;;17.43;3.50;;;21.80;96.10;;;;;;4987015;28;20264;-74
2021/01/05 12:49:52;;;;;;;11.97;3.20;;;21.80;95.90;;;;;;4983391;28;20210;-74
2021/01/05 12:52:19;;;;;;;12.23;3.00;;;21.90;95.30;;;;;;4980698;28;20181;-72
2021/01/05 12:54:47;;;;;;;14.50;3.10;;;21.90;95.00;;;;;;4995854;28;20193;-74
2021/01/05 12:57:17;;;;;;;12.07;2.67;;;22.00;94.70;;;;;;4995763;28;20249;-72
2021/01/05 12:59:48;;;;;;;12.77;2.93;;;22.00;94.60;;;;;;4995672;28;20270;-73
2021/01/05 13:02:25;;;;;;;11.20;2.37;;;22.00;94.60;;;;;;4994667;28;20182;-72
2021/01/05 13:04:52;;;;;;;10.67;2.27;;;22.10;94.40;;;;;;4995532;28;20218;-73
2021/01/05 13:07:23;;;;;;;13.00;2.93;;;22.10;94.50;;;;;;4989130;28;20174;-75
2021/01/05 13:09:55;;;;;;;11.37;2.60;;;22.20;94.90;;;;;;4993459;28;20301;-78